sensor_id;sensor_type;location;lat;lon;timestamp;pressure;altitude;pressure_sealevel;temperature
47484;BMP280;54076;50.322;18.650;2024-01-16T00:00:12;97155.77;;;3.48
47484;BMP280;54076;50.322;18.650;2024-01-16T00:05:13;97162.80;;;3.45
47484;BMP280;54076;50.322;18.650;2024-01-16T00:10:14;97159.05;;;3.54
47484;BMP280;54076;50.322;18.650;2024-01-16T00:15:16;97171.04;;;3.47
47484;BMP280;54076;50.322;18.650;2024-01-16T00:20:17;97170.63;;;3.62
47484;BMP280;54076;50.322;18.650;2024-01-16T00:25:18;97171.70;;;3.58
47484;BMP280;54076;50.322;18.650;2024-01-16T00:30:20;97185.70;;;3.80
47484;BMP280;54076;50.322;18.650;2024-01-16T00:35:22;97192.65;;;3.49
47484;BMP280;54076;50.322;18.650;2024-01-16T00:40:23;97188.95;;;3.39
47484;BMP280;54076;50.322;18.650;2024-01-16T00:45:24;97199.58;;;3.42
47484;BMP280;54076;50.322;18.650;2024-01-16T00:50:25;97204.20;;;3.41
47484;BMP280;54076;50.322;18.650;2024-01-16T00:55:26;97205.19;;;3.42
47484;BMP280;54076;50.322;18.650;2024-01-16T01:00:26;97207.91;;;3.39
47484;BMP280;54076;50.322;18.650;2024-01-16T01:05:28;97204.08;;;3.30
47484;BMP280;54076;50.322;18.650;2024-01-16T01:10:29;97212.25;;;3.23
47484;BMP280;54076;50.322;18.650;2024-01-16T01:15:30;97220.32;;;3.40
47484;BMP280;54076;50.322;18.650;2024-01-16T01:20:31;97214.48;;;3.17
47484;BMP280;54076;50.322;18.650;2024-01-16T01:25:32;97216.58;;;3.25
47484;BMP280;54076;50.322;18.650;2024-01-16T01:30:33;97213.45;;;3.22
47484;BMP280;54076;50.322;18.650;2024-01-16T01:35:34;97216.12;;;3.37
47484;BMP280;54076;50.322;18.650;2024-01-16T01:40:35;97219.45;;;3.12
47484;BMP280;54076;50.322;18.650;2024-01-16T01:45:36;97215.60;;;3.12
47484;BMP280;54076;50.322;18.650;2024-01-16T01:50:37;97218.79;;;3.09
47484;BMP280;54076;50.322;18.650;2024-01-16T01:55:38;97223.86;;;3.13
47484;BMP280;54076;50.322;18.650;2024-01-16T02:00:39;97223.56;;;3.15
47484;BMP280;54076;50.322;18.650;2024-01-16T02:05:40;97218.21;;;3.00
47484;BMP280;54076;50.322;18.650;2024-01-16T02:10:42;97220.36;;;2.96
47484;BMP280;54076;50.322;18.650;2024-01-16T02:15:46;97222.19;;;2.99
47484;BMP280;54076;50.322;18.650;2024-01-16T02:20:47;97227.38;;;2.86
47484;BMP280;54076;50.322;18.650;2024-01-16T02:25:48;97224.13;;;2.90
47484;BMP280;54076;50.322;18.650;2024-01-16T02:30:49;97234.62;;;2.88
47484;BMP280;54076;50.322;18.650;2024-01-16T02:35:53;97251.20;;;2.81
47484;BMP280;54076;50.322;18.650;2024-01-16T02:40:54;97258.80;;;2.65
47484;BMP280;54076;50.322;18.650;2024-01-16T02:45:55;97268.48;;;2.70
47484;BMP280;54076;50.322;18.650;2024-01-16T02:50:56;97276.23;;;2.32
47484;BMP280;54076;50.322;18.650;2024-01-16T02:55:57;97281.95;;;2.30
47484;BMP280;54076;50.322;18.650;2024-01-16T03:01:01;97283.54;;;2.23
47484;BMP280;54076;50.322;18.650;2024-01-16T03:06:03;97291.41;;;2.50
47484;BMP280;54076;50.322;18.650;2024-01-16T03:11:05;97294.97;;;2.53
47484;BMP280;54076;50.322;18.650;2024-01-16T03:16:07;97299.15;;;2.55
47484;BMP280;54076;50.322;18.650;2024-01-16T03:21:08;97308.02;;;2.38
47484;BMP280;54076;50.322;18.650;2024-01-16T03:26:15;97312.75;;;2.47
47484;BMP280;54076;50.322;18.650;2024-01-16T03:31:16;97315.40;;;2.74
47484;BMP280;54076;50.322;18.650;2024-01-16T03:36:18;97320.58;;;2.81
47484;BMP280;54076;50.322;18.650;2024-01-16T03:41:19;97324.56;;;2.78
47484;BMP280;54076;50.322;18.650;2024-01-16T03:46:20;97345.42;;;2.80
47484;BMP280;54076;50.322;18.650;2024-01-16T03:51:21;97346.20;;;2.66
47484;BMP280;54076;50.322;18.650;2024-01-16T03:56:22;97361.83;;;2.68
47484;BMP280;54076;50.322;18.650;2024-01-16T04:01:31;97369.76;;;2.83
47484;BMP280;54076;50.322;18.650;2024-01-16T04:06:32;97387.24;;;2.75
47484;BMP280;54076;50.322;18.650;2024-01-16T04:11:34;97398.25;;;2.64
47484;BMP280;54076;50.322;18.650;2024-01-16T04:16:35;97401.47;;;2.81
47484;BMP280;54076;50.322;18.650;2024-01-16T04:21:36;97403.52;;;2.93
47484;BMP280;54076;50.322;18.650;2024-01-16T04:26:37;97411.05;;;2.87
47484;BMP280;54076;50.322;18.650;2024-01-16T04:31:39;97402.60;;;2.93
47484;BMP280;54076;50.322;18.650;2024-01-16T04:36:43;97414.30;;;2.83
47484;BMP280;54076;50.322;18.650;2024-01-16T04:41:44;97422.05;;;2.68
47484;BMP280;54076;50.322;18.650;2024-01-16T04:46:45;97431.17;;;2.32
47484;BMP280;54076;50.322;18.650;2024-01-16T04:51:46;97435.64;;;2.46
47484;BMP280;54076;50.322;18.650;2024-01-16T04:56:48;97442.52;;;2.30
47484;BMP280;54076;50.322;18.650;2024-01-16T05:01:49;97454.27;;;2.55
47484;BMP280;54076;50.322;18.650;2024-01-16T05:06:53;97466.23;;;2.46
47484;BMP280;54076;50.322;18.650;2024-01-16T05:11:54;97462.55;;;2.38
47484;BMP280;54076;50.322;18.650;2024-01-16T05:16:55;97462.86;;;2.38
47484;BMP280;54076;50.322;18.650;2024-01-16T05:21:56;97461.36;;;2.51
47484;BMP280;54076;50.322;18.650;2024-01-16T05:26:57;97476.23;;;2.74
47484;BMP280;54076;50.322;18.650;2024-01-16T05:31:58;97466.12;;;2.57
47484;BMP280;54076;50.322;18.650;2024-01-16T05:36:59;97465.70;;;2.47
47484;BMP280;54076;50.322;18.650;2024-01-16T05:42:00;97476.16;;;2.50
47484;BMP280;54076;50.322;18.650;2024-01-16T05:47:01;97484.34;;;2.54
47484;BMP280;54076;50.322;18.650;2024-01-16T05:52:03;97491.21;;;2.58
47484;BMP280;54076;50.322;18.650;2024-01-16T05:57:04;97504.42;;;2.36
47484;BMP280;54076;50.322;18.650;2024-01-16T06:02:05;97508.25;;;2.26
47484;BMP280;54076;50.322;18.650;2024-01-16T06:07:06;97519.80;;;2.25
47484;BMP280;54076;50.322;18.650;2024-01-16T06:12:10;97521.34;;;2.35
47484;BMP280;54076;50.322;18.650;2024-01-16T06:17:12;97534.83;;;2.63
47484;BMP280;54076;50.322;18.650;2024-01-16T06:22:13;97539.34;;;2.82
47484;BMP280;54076;50.322;18.650;2024-01-16T06:27:14;97541.74;;;2.78
47484;BMP280;54076;50.322;18.650;2024-01-16T06:32:19;97546.28;;;2.83
47484;BMP280;54076;50.322;18.650;2024-01-16T06:37:20;97566.95;;;2.61
47484;BMP280;54076;50.322;18.650;2024-01-16T06:42:21;97584.09;;;2.67
47484;BMP280;54076;50.322;18.650;2024-01-16T06:47:25;97588.09;;;2.72
47484;BMP280;54076;50.322;18.650;2024-01-16T06:52:26;97597.45;;;2.70
47484;BMP280;54076;50.322;18.650;2024-01-16T06:57:33;97611.35;;;2.81
47484;BMP280;54076;50.322;18.650;2024-01-16T07:02:34;97619.88;;;2.55
47484;BMP280;54076;50.322;18.650;2024-01-16T07:07:38;97629.77;;;2.68
47484;BMP280;54076;50.322;18.650;2024-01-16T07:12:40;97631.48;;;2.90
47484;BMP280;54076;50.322;18.650;2024-01-16T07:17:41;97638.40;;;2.55
47484;BMP280;54076;50.322;18.650;2024-01-16T07:22:42;97644.89;;;2.68
47484;BMP280;54076;50.322;18.650;2024-01-16T07:27:44;97644.19;;;2.72
47484;BMP280;54076;50.322;18.650;2024-01-16T07:32:47;97651.27;;;2.72
47484;BMP280;54076;50.322;18.650;2024-01-16T07:37:49;97667.92;;;2.78
47484;BMP280;54076;50.322;18.650;2024-01-16T07:42:50;97670.73;;;2.85
47484;BMP280;54076;50.322;18.650;2024-01-16T07:47:51;97674.96;;;2.75
47484;BMP280;54076;50.322;18.650;2024-01-16T07:52:52;97673.00;;;2.57
47484;BMP280;54076;50.322;18.650;2024-01-16T07:57:57;97676.20;;;2.31
47484;BMP280;54076;50.322;18.650;2024-01-16T08:02:58;97679.44;;;2.23
47484;BMP280;54076;50.322;18.650;2024-01-16T08:07:59;97683.19;;;2.32
47484;BMP280;54076;50.322;18.650;2024-01-16T08:13:00;97686.81;;;2.51
47484;BMP280;54076;50.322;18.650;2024-01-16T08:18:01;97698.90;;;2.70
47484;BMP280;54076;50.322;18.650;2024-01-16T08:23:03;97706.24;;;2.79
47484;BMP280;54076;50.322;18.650;2024-01-16T08:28:04;97704.86;;;3.03
47484;BMP280;54076;50.322;18.650;2024-01-16T08:33:06;97708.86;;;3.15
47484;BMP280;54076;50.322;18.650;2024-01-16T08:38:10;97708.40;;;3.29
47484;BMP280;54076;50.322;18.650;2024-01-16T08:43:11;97719.52;;;3.49
47484;BMP280;54076;50.322;18.650;2024-01-16T08:48:13;97715.67;;;3.66
47484;BMP280;54076;50.322;18.650;2024-01-16T08:53:15;97730.42;;;3.30
47484;BMP280;54076;50.322;18.650;2024-01-16T08:58:16;97738.52;;;3.10
47484;BMP280;54076;50.322;18.650;2024-01-16T09:03:17;97742.81;;;3.31
47484;BMP280;54076;50.322;18.650;2024-01-16T09:08:19;97750.77;;;3.49
47484;BMP280;54076;50.322;18.650;2024-01-16T09:13:20;97758.78;;;3.63
47484;BMP280;54076;50.322;18.650;2024-01-16T09:18:21;97767.34;;;3.48
47484;BMP280;54076;50.322;18.650;2024-01-16T09:23:23;97760.27;;;4.41
47484;BMP280;54076;50.322;18.650;2024-01-16T09:28:24;97762.40;;;4.04
47484;BMP280;54076;50.322;18.650;2024-01-16T09:33:25;97760.78;;;4.35
47484;BMP280;54076;50.322;18.650;2024-01-16T09:38:26;97767.64;;;4.27
47484;BMP280;54076;50.322;18.650;2024-01-16T09:43:28;97771.76;;;4.16
47484;BMP280;54076;50.322;18.650;2024-01-16T09:48:30;97775.24;;;4.55
47484;BMP280;54076;50.322;18.650;2024-01-16T09:53:31;97778.91;;;4.38
47484;BMP280;54076;50.322;18.650;2024-01-16T09:58:34;97786.04;;;4.35
47484;BMP280;54076;50.322;18.650;2024-01-16T10:03:37;97794.09;;;4.28
47484;BMP280;54076;50.322;18.650;2024-01-16T10:08:39;97783.37;;;4.34
47484;BMP280;54076;50.322;18.650;2024-01-16T10:13:40;97789.15;;;4.32
47484;BMP280;54076;50.322;18.650;2024-01-16T10:18:42;97791.56;;;4.57
47484;BMP280;54076;50.322;18.650;2024-01-16T10:23:44;97803.39;;;4.13
47484;BMP280;54076;50.322;18.650;2024-01-16T10:28:46;97808.60;;;4.11
47484;BMP280;54076;50.322;18.650;2024-01-16T10:33:47;97820.32;;;4.10
47484;BMP280;54076;50.322;18.650;2024-01-16T10:38:48;97826.00;;;4.10
47484;BMP280;54076;50.322;18.650;2024-01-16T10:44:08;97833.70;;;3.80
47484;BMP280;54076;50.322;18.650;2024-01-16T10:49:09;97833.87;;;3.87
47484;BMP280;54076;50.322;18.650;2024-01-16T10:54:13;97846.11;;;4.01
47484;BMP280;54076;50.322;18.650;2024-01-16T10:59:45;97861.41;;;3.99
47484;BMP280;54076;50.322;18.650;2024-01-16T11:04:48;97853.61;;;4.32
47484;BMP280;54076;50.322;18.650;2024-01-16T11:09:50;97867.15;;;4.02
47484;BMP280;54076;50.322;18.650;2024-01-16T11:14:52;97874.08;;;4.04
47484;BMP280;54076;50.322;18.650;2024-01-16T11:19:53;97872.66;;;3.77
47484;BMP280;54076;50.322;18.650;2024-01-16T11:25:31;97876.77;;;3.84
47484;BMP280;54076;50.322;18.650;2024-01-16T11:30:32;97879.91;;;3.79
47484;BMP280;54076;50.322;18.650;2024-01-16T11:35:37;97882.36;;;4.03
47484;BMP280;54076;50.322;18.650;2024-01-16T11:40:38;97880.27;;;4.53
47484;BMP280;54076;50.322;18.650;2024-01-16T11:50:41;97885.64;;;7.29
47484;BMP280;54076;50.322;18.650;2024-01-16T11:56:15;97892.13;;;8.11
47484;BMP280;54076;50.322;18.650;2024-01-16T12:01:21;97902.25;;;7.50
47484;BMP280;54076;50.322;18.650;2024-01-16T12:06:22;97885.43;;;7.65
47484;BMP280;54076;50.322;18.650;2024-01-16T12:11:24;97886.08;;;6.41
47484;BMP280;54076;50.322;18.650;2024-01-16T12:16:25;97892.54;;;6.66
47484;BMP280;54076;50.322;18.650;2024-01-16T12:21:26;97891.35;;;5.66
47484;BMP280;54076;50.322;18.650;2024-01-16T12:26:27;97879.73;;;5.10
47484;BMP280;54076;50.322;18.650;2024-01-16T12:31:29;97883.89;;;5.23
47484;BMP280;54076;50.322;18.650;2024-01-16T12:36:30;97875.23;;;4.58
47484;BMP280;54076;50.322;18.650;2024-01-16T12:41:41;97889.20;;;4.26
47484;BMP280;54076;50.322;18.650;2024-01-16T12:47:39;97893.81;;;3.99
47484;BMP280;54076;50.322;18.650;2024-01-16T12:52:40;97897.65;;;3.99
47484;BMP280;54076;50.322;18.650;2024-01-16T12:57:42;97899.56;;;4.16
47484;BMP280;54076;50.322;18.650;2024-01-16T13:02:49;97894.98;;;4.18
47484;BMP280;54076;50.322;18.650;2024-01-16T13:08:01;97898.98;;;4.11
47484;BMP280;54076;50.322;18.650;2024-01-16T13:13:17;97898.20;;;4.21
47484;BMP280;54076;50.322;18.650;2024-01-16T13:18:22;97902.49;;;3.93
47484;BMP280;54076;50.322;18.650;2024-01-16T13:23:24;97908.55;;;3.96
47484;BMP280;54076;50.322;18.650;2024-01-16T13:28:26;97911.19;;;3.96
47484;BMP280;54076;50.322;18.650;2024-01-16T13:33:27;97913.71;;;3.95
47484;BMP280;54076;50.322;18.650;2024-01-16T13:38:28;97926.98;;;3.72
47484;BMP280;54076;50.322;18.650;2024-01-16T13:43:30;97928.07;;;3.61
47484;BMP280;54076;50.322;18.650;2024-01-16T13:48:31;97929.90;;;3.58
47484;BMP280;54076;50.322;18.650;2024-01-16T13:53:32;97934.28;;;3.66
47484;BMP280;54076;50.322;18.650;2024-01-16T13:58:33;97948.48;;;3.50
47484;BMP280;54076;50.322;18.650;2024-01-16T14:03:35;97958.73;;;3.26
47484;BMP280;54076;50.322;18.650;2024-01-16T14:08:36;97968.30;;;3.04
47484;BMP280;54076;50.322;18.650;2024-01-16T14:13:38;97980.23;;;3.02
47484;BMP280;54076;50.322;18.650;2024-01-16T14:18:39;97991.98;;;3.03
47484;BMP280;54076;50.322;18.650;2024-01-16T14:23:40;97990.66;;;2.84
47484;BMP280;54076;50.322;18.650;2024-01-16T14:28:41;98002.12;;;2.85
47484;BMP280;54076;50.322;18.650;2024-01-16T14:33:42;98004.27;;;2.69
47484;BMP280;54076;50.322;18.650;2024-01-16T14:38:42;98005.08;;;3.02
47484;BMP280;54076;50.322;18.650;2024-01-16T14:43:44;98014.16;;;2.56
47484;BMP280;54076;50.322;18.650;2024-01-16T14:48:45;98017.75;;;2.52
47484;BMP280;54076;50.322;18.650;2024-01-16T14:53:49;98018.98;;;2.47
47484;BMP280;54076;50.322;18.650;2024-01-16T14:58:50;98029.25;;;2.52
47484;BMP280;54076;50.322;18.650;2024-01-16T15:03:51;98040.16;;;2.55
47484;BMP280;54076;50.322;18.650;2024-01-16T15:08:52;98046.11;;;2.71
47484;BMP280;54076;50.322;18.650;2024-01-16T15:13:53;98053.98;;;2.82
47484;BMP280;54076;50.322;18.650;2024-01-16T15:18:54;98062.41;;;2.77
47484;BMP280;54076;50.322;18.650;2024-01-16T15:23:56;98079.37;;;2.89
47484;BMP280;54076;50.322;18.650;2024-01-16T15:28:57;98091.27;;;2.84
47484;BMP280;54076;50.322;18.650;2024-01-16T15:33:58;98099.29;;;2.87
47484;BMP280;54076;50.322;18.650;2024-01-16T15:38:59;98105.55;;;3.04
47484;BMP280;54076;50.322;18.650;2024-01-16T15:44:01;98113.48;;;2.82
47484;BMP280;54076;50.322;18.650;2024-01-16T15:49:03;98116.88;;;2.84
47484;BMP280;54076;50.322;18.650;2024-01-16T15:54:04;98121.41;;;2.74
47484;BMP280;54076;50.322;18.650;2024-01-16T15:59:06;98124.83;;;2.46
47484;BMP280;54076;50.322;18.650;2024-01-16T16:04:07;98130.31;;;2.43
47484;BMP280;54076;50.322;18.650;2024-01-16T16:09:10;98127.20;;;2.43
47484;BMP280;54076;50.322;18.650;2024-01-16T16:14:12;98128.86;;;2.23
47484;BMP280;54076;50.322;18.650;2024-01-16T16:19:13;98135.44;;;2.12
47484;BMP280;54076;50.322;18.650;2024-01-16T16:24:15;98142.57;;;2.29
47484;BMP280;54076;50.322;18.650;2024-01-16T16:29:17;98143.23;;;2.23
47484;BMP280;54076;50.322;18.650;2024-01-16T16:34:18;98142.45;;;2.41
47484;BMP280;54076;50.322;18.650;2024-01-16T16:39:19;98141.16;;;2.28
47484;BMP280;54076;50.322;18.650;2024-01-16T16:44:23;98144.34;;;2.24
47484;BMP280;54076;50.322;18.650;2024-01-16T16:49:24;98145.94;;;2.47
47484;BMP280;54076;50.322;18.650;2024-01-16T16:54:25;98135.29;;;2.44
47484;BMP280;54076;50.322;18.650;2024-01-16T16:59:26;98134.38;;;2.56
47484;BMP280;54076;50.322;18.650;2024-01-16T17:04:27;98135.19;;;2.64
47484;BMP280;54076;50.322;18.650;2024-01-16T17:09:28;98134.81;;;2.58
47484;BMP280;54076;50.322;18.650;2024-01-16T17:14:29;98139.63;;;2.51
47484;BMP280;54076;50.322;18.650;2024-01-16T17:19:30;98145.16;;;2.48
47484;BMP280;54076;50.322;18.650;2024-01-16T17:24:31;98147.36;;;2.13
47484;BMP280;54076;50.322;18.650;2024-01-16T17:29:32;98156.20;;;2.18
47484;BMP280;54076;50.322;18.650;2024-01-16T17:34:33;98155.06;;;1.76
47484;BMP280;54076;50.322;18.650;2024-01-16T17:39:34;98161.52;;;1.77
47484;BMP280;54076;50.322;18.650;2024-01-16T17:44:48;98160.85;;;1.83
47484;BMP280;54076;50.322;18.650;2024-01-16T17:49:49;98167.66;;;1.72
47484;BMP280;54076;50.322;18.650;2024-01-16T17:54:51;98165.70;;;1.63
47484;BMP280;54076;50.322;18.650;2024-01-16T17:59:52;98170.74;;;1.42
47484;BMP280;54076;50.322;18.650;2024-01-16T18:04:53;98169.06;;;1.46
47484;BMP280;54076;50.322;18.650;2024-01-16T18:09:54;98174.94;;;1.54
47484;BMP280;54076;50.322;18.650;2024-01-16T18:14:55;98171.77;;;1.38
47484;BMP280;54076;50.322;18.650;2024-01-16T18:19:56;98169.45;;;1.39
47484;BMP280;54076;50.322;18.650;2024-01-16T18:24:58;98174.09;;;1.36
47484;BMP280;54076;50.322;18.650;2024-01-16T18:29:59;98178.30;;;1.39
47484;BMP280;54076;50.322;18.650;2024-01-16T18:35:01;98183.03;;;1.42
47484;BMP280;54076;50.322;18.650;2024-01-16T18:40:03;98188.18;;;1.30
47484;BMP280;54076;50.322;18.650;2024-01-16T18:45:05;98191.11;;;1.39
47484;BMP280;54076;50.322;18.650;2024-01-16T18:50:09;98185.85;;;1.35
47484;BMP280;54076;50.322;18.650;2024-01-16T18:55:10;98199.45;;;1.45
47484;BMP280;54076;50.322;18.650;2024-01-16T19:00:13;98200.58;;;1.48
47484;BMP280;54076;50.322;18.650;2024-01-16T19:05:15;98201.73;;;1.34
47484;BMP280;54076;50.322;18.650;2024-01-16T19:10:17;98199.47;;;1.37
47484;BMP280;54076;50.322;18.650;2024-01-16T19:15:18;98200.38;;;1.39
47484;BMP280;54076;50.322;18.650;2024-01-16T19:20:24;98210.45;;;1.22
47484;BMP280;54076;50.322;18.650;2024-01-16T19:25:26;98210.67;;;1.20
47484;BMP280;54076;50.322;18.650;2024-01-16T19:30:27;98219.13;;;1.22
47484;BMP280;54076;50.322;18.650;2024-01-16T19:35:29;98219.59;;;1.10
47484;BMP280;54076;50.322;18.650;2024-01-16T19:40:30;98228.18;;;1.16
47484;BMP280;54076;50.322;18.650;2024-01-16T19:45:32;98230.27;;;1.10
47484;BMP280;54076;50.322;18.650;2024-01-16T19:50:33;98225.23;;;1.04
47484;BMP280;54076;50.322;18.650;2024-01-16T19:55:34;98214.45;;;0.94
47484;BMP280;54076;50.322;18.650;2024-01-16T20:00:37;98215.95;;;0.83
47484;BMP280;54076;50.322;18.650;2024-01-16T20:05:41;98215.50;;;0.88
47484;BMP280;54076;50.322;18.650;2024-01-16T20:10:45;98215.94;;;0.94
47484;BMP280;54076;50.322;18.650;2024-01-16T20:15:46;98213.08;;;0.86
47484;BMP280;54076;50.322;18.650;2024-01-16T20:20:48;98216.75;;;1.00
47484;BMP280;54076;50.322;18.650;2024-01-16T20:25:50;98222.36;;;1.13
47484;BMP280;54076;50.322;18.650;2024-01-16T20:30:52;98219.35;;;1.05
47484;BMP280;54076;50.322;18.650;2024-01-16T20:35:53;98211.11;;;0.87
47484;BMP280;54076;50.322;18.650;2024-01-16T20:40:54;98206.27;;;1.06
47484;BMP280;54076;50.322;18.650;2024-01-16T20:45:55;98203.92;;;1.13
47484;BMP280;54076;50.322;18.650;2024-01-16T20:51:02;98204.15;;;1.10
47484;BMP280;54076;50.322;18.650;2024-01-16T20:56:05;98199.29;;;1.00
47484;BMP280;54076;50.322;18.650;2024-01-16T21:01:06;98201.94;;;0.98
47484;BMP280;54076;50.322;18.650;2024-01-16T21:06:08;98194.83;;;0.96
47484;BMP280;54076;50.322;18.650;2024-01-16T21:11:09;98205.58;;;1.00
47484;BMP280;54076;50.322;18.650;2024-01-16T21:16:10;98214.17;;;0.95
47484;BMP280;54076;50.322;18.650;2024-01-16T21:21:13;98206.42;;;0.82
47484;BMP280;54076;50.322;18.650;2024-01-16T21:26:14;98210.08;;;0.93
47484;BMP280;54076;50.322;18.650;2024-01-16T21:31:16;98202.15;;;1.08
47484;BMP280;54076;50.322;18.650;2024-01-16T21:36:17;98206.75;;;1.10
47484;BMP280;54076;50.322;18.650;2024-01-16T21:41:18;98191.33;;;1.24
47484;BMP280;54076;50.322;18.650;2024-01-16T21:46:19;98193.90;;;1.22
47484;BMP280;54076;50.322;18.650;2024-01-16T21:51:20;98194.86;;;1.26
47484;BMP280;54076;50.322;18.650;2024-01-16T21:56:21;98190.40;;;1.31
47484;BMP280;54076;50.322;18.650;2024-01-16T22:01:23;98186.60;;;1.38
47484;BMP280;54076;50.322;18.650;2024-01-16T22:06:24;98183.80;;;1.45
47484;BMP280;54076;50.322;18.650;2024-01-16T22:11:25;98180.42;;;1.35
47484;BMP280;54076;50.322;18.650;2024-01-16T22:16:26;98170.41;;;1.26
47484;BMP280;54076;50.322;18.650;2024-01-16T22:21:28;98162.65;;;1.31
47484;BMP280;54076;50.322;18.650;2024-01-16T22:26:29;98160.19;;;1.30
47484;BMP280;54076;50.322;18.650;2024-01-16T22:31:32;98156.52;;;1.28
47484;BMP280;54076;50.322;18.650;2024-01-16T22:36:38;98152.35;;;1.18
47484;BMP280;54076;50.322;18.650;2024-01-16T22:41:46;98144.38;;;1.10
47484;BMP280;54076;50.322;18.650;2024-01-16T22:46:47;98150.09;;;0.95
47484;BMP280;54076;50.322;18.650;2024-01-16T22:51:48;98153.70;;;0.67
47484;BMP280;54076;50.322;18.650;2024-01-16T22:56:49;98143.70;;;0.83
47484;BMP280;54076;50.322;18.650;2024-01-16T23:01:50;98139.13;;;0.74
47484;BMP280;54076;50.322;18.650;2024-01-16T23:06:51;98141.38;;;0.78
47484;BMP280;54076;50.322;18.650;2024-01-16T23:11:52;98136.40;;;0.72
47484;BMP280;54076;50.322;18.650;2024-01-16T23:16:53;98129.70;;;0.71
47484;BMP280;54076;50.322;18.650;2024-01-16T23:21:54;98130.75;;;0.83
47484;BMP280;54076;50.322;18.650;2024-01-16T23:26:55;98137.40;;;0.76
47484;BMP280;54076;50.322;18.650;2024-01-16T23:31:57;98128.00;;;0.73
47484;BMP280;54076;50.322;18.650;2024-01-16T23:36:58;98121.31;;;0.47
47484;BMP280;54076;50.322;18.650;2024-01-16T23:41:59;98119.96;;;0.61
47484;BMP280;54076;50.322;18.650;2024-01-16T23:47:00;98114.63;;;0.61
47484;BMP280;54076;50.322;18.650;2024-01-16T23:52:01;98114.48;;;0.48
47484;BMP280;54076;50.322;18.650;2024-01-16T23:57:06;98103.45;;;0.44
